Time;durP1;ratioP1;P1;durP2;ratioP2;P2;SDS_P1;SDS_P2;PMS_P1;PMS_P2;Temp;Humidity;BMP_temperature;BMP_pressure;BME280_temperature;BME280_humidity;BME280_pressure;Samples;Min_cycle;Max_cycle;Signal;HPM_P1;HPM_P2
2022/12/07 00:07:25;;;;;;;2.83;2.27;;;;;;;4.04;36.14;101011.84;31345138;28;20061;-70
2022/12/07 00:22:28;;;;;;;2.70;2.20;;;;;;;3.93;36.58;100986.69;31366353;28;20048;-72
2022/12/07 00:37:30;;;;;;;4.30;3.20;;;;;;;3.92;37.04;100977.06;31343348;28;20060;-72
2022/12/07 00:52:32;;;;;;;4.63;2.80;;;;;;;4.16;36.76;100941.88;31337532;28;20057;-70
2022/12/07 01:07:34;;;;;;;5.97;2.57;;;;;;;3.85;37.42;100923.97;31325484;28;20536;-71
2022/12/07 01:22:37;;;;;;;9.03;3.37;;;;;;;4.11;37.42;100908.00;31341037;28;20049;-70
2022/12/07 01:37:39;;;;;;;2.63;2.33;;;;;;;3.83;37.89;100917.38;31328165;28;20056;-70
2022/12/07 01:52:45;;;;;;;5.20;2.90;;;;;;;4.28;37.98;100890.63;31323665;28;20061;-71
2022/12/07 02:07:48;;;;;;;2.87;2.50;;;;;;;3.82;38.93;100934.63;31390856;28;20049;-71
2022/12/07 02:23:29;;;;;;;5.60;2.30;;;;;;;3.85;38.44;100925.88;31339846;28;20144;-71
2022/12/07 02:38:50;;;;;;;6.70;3.27;;;;;;;3.84;38.72;100918.94;31356000;28;20061;-71
2022/12/07 02:53:51;;;;;;;5.27;3.50;;;;;;;3.84;38.41;100908.97;31324912;28;20076;-72
2022/12/07 03:09:11;;;;;;;4.67;3.47;;;;;;;3.28;39.57;100889.75;31342267;28;20052;-70
2022/12/07 03:24:17;;;;;;;4.37;3.47;;;;;;;3.66;38.74;100881.75;31334261;28;20064;-71
2022/12/07 03:39:39;;;;;;;3.57;3.27;;;;;;;2.71;40.64;100866.97;31335287;28;20064;-70
2022/12/07 03:54:48;;;;;;;6.07;3.20;;;;;;;3.22;39.16;100845.53;31358350;28;20045;-70
2022/12/07 04:09:50;;;;;;;3.17;2.80;;;;;;;3.18;39.21;100876.88;31339259;28;20052;-70
2022/12/07 04:24:52;;;;;;;6.13;4.30;;;;;;;2.89;40.55;100865.47;31313933;28;20077;-69
2022/12/07 04:39:54;;;;;;;4.40;3.87;;;;;;;2.84;40.22;100852.34;31329930;28;20057;-71
2022/12/07 04:54:56;;;;;;;4.97;3.43;;;;;;;2.79;39.34;100875.97;31335090;28;20114;-70
2022/12/07 05:09:57;;;;;;;5.90;4.17;;;;;;;2.60;39.77;100884.72;31331279;28;20068;-70
2022/12/07 05:24:59;;;;;;;6.17;4.73;;;;;;;2.60;39.35;100879.34;31333785;28;20568;-71
2022/12/07 05:40:01;;;;;;;10.70;4.20;;;;;;;2.44;39.79;100886.56;31325381;28;20299;-70
2022/12/07 05:55:04;;;;;;;12.50;3.17;;;;;;;2.83;39.25;100903.66;31397940;28;20053;-72
2022/12/07 06:10:06;;;;;;;7.57;4.10;;;;;;;2.13;40.50;100901.47;31338484;28;20094;-69
2022/12/07 06:25:09;;;;;;;5.53;3.33;;;;;;;2.50;39.86;100901.28;31339130;28;20095;-70
2022/12/07 06:40:14;;;;;;;10.37;4.37;;;;;;;3.03;39.48;100902.59;31351620;28;20049;-71
2022/12/07 06:55:17;;;;;;;4.23;3.83;;;;;;;2.33;40.16;100895.13;31362078;28;20065;-72
2022/12/07 07:10:19;;;;;;;8.03;4.70;;;;;;;2.91;39.06;100895.41;31344496;28;20072;-73
2022/12/07 07:25:21;;;;;;;6.43;4.90;;;;;;;2.98;38.83;100892.91;31341736;28;20481;-70
2022/12/07 07:40:24;;;;;;;4.77;3.07;;;;;;;3.49;38.13;100909.03;31346208;28;20057;-71
2022/12/07 07:55:26;;;;;;;9.87;5.47;;;;;;;3.20;38.13;100928.28;31350097;28;20048;-70
2022/12/07 08:10:28;;;;;;;4.57;3.77;;;;;;;3.77;37.17;100906.16;31366370;28;20048;-73
2022/12/07 08:25:30;;;;;;;6.13;4.97;;;;;;;3.92;37.72;100869.63;31337757;28;20541;-72
2022/12/07 08:40:32;;;;;;;12.30;4.80;;;;;;;3.95;37.68;100855.47;31325426;28;20095;-71
2022/12/07 08:55:34;;;;;;;8.03;4.80;;;;;;;4.29;37.64;100856.47;31335662;28;20060;-72
2022/12/07 09:11:08;;;;;;;12.97;7.13;;;;;;;4.02;38.20;100823.34;31357415;28;20060;-83
2022/12/07 09:26:14;;;;;;;8.63;4.53;;;;;;;4.08;38.06;100821.94;31410412;28;20052;-77
2022/12/07 09:41:16;;;;;;;11.97;5.10;;;;;;;4.11;38.83;100815.84;31327502;28;20045;-71
2022/12/07 09:56:21;;;;;;;11.50;6.90;;;;;;;4.29;38.67;100800.81;31306662;28;20045;-71
2022/12/07 10:11:30;;;;;;;9.27;5.93;;;;;;;4.14;39.26;100790.97;31374255;28;20071;-86
2022/12/07 10:26:36;;;;;;;12.33;6.33;;;;;;;4.27;39.36;100765.44;31477124;28;20504;-79
2022/12/07 10:42:18;;;;;;;7.57;4.33;;;;;;;3.44;42.86;100740.19;31474684;28;20053;-80
2022/12/07 10:57:57;;;;;;;12.10;5.53;;;;;;;4.08;41.00;100733.28;31395871;28;20040;-81
2022/12/07 11:13:28;;;;;;;9.53;5.23;;;;;;;4.46;40.17;100721.59;31345821;28;20057;-69
2022/12/07 11:29:05;;;;;;;8.93;6.00;;;;;;;4.36;40.99;100725.66;31341779;28;20076;-69
2022/12/07 11:44:19;;;;;;;10.60;5.20;;;;;;;4.33;42.26;100696.81;31344734;28;20088;-68
2022/12/07 11:59:45;;;;;;;11.23;5.83;;;;;;;4.58;42.05;100685.66;31340047;28;20386;-68
2022/12/07 12:15:05;;;;;;;12.47;6.03;;;;;;;4.63;41.72;100696.88;31327522;28;20056;-70
2022/12/07 12:30:35;;;;;;;7.83;4.67;;;;;;;4.43;42.41;100711.56;31352525;28;20053;-69
2022/12/07 12:45:37;;;;;;;12.13;6.17;;;;;;;4.23;42.68;100718.94;31319450;28;20057;-69
2022/12/07 13:00:39;;;;;;;14.33;4.20;;;;;;;4.57;42.38;100705.59;31319309;28;20073;-71
2022/12/07 13:15:48;;;;;;;8.17;4.53;;;;;;;4.54;43.26;100720.56;31363819;28;20059;-71
2022/12/07 13:31:09;;;;;;;7.40;4.53;;;;;;;4.51;43.29;100713.19;31401133;28;20510;-80
2022/12/07 13:46:16;;;;;;;8.73;5.57;;;;;;;4.59;42.52;100727.53;31346014;28;20053;-80
2022/12/07 14:01:25;;;;;;;12.53;5.30;;;;;;;4.79;42.11;100727.06;31447626;28;20136;-70
2022/12/07 14:16:42;;;;;;;12.40;6.07;;;;;;;5.01;42.25;100711.19;31367019;28;20049;-81
2022/12/07 14:31:46;;;;;;;11.90;6.97;;;;;;;4.57;43.68;100692.16;31372979;28;20448;-72
2022/12/07 14:46:53;;;;;;;16.30;6.70;;;;;;;4.94;43.67;100727.25;31340355;28;20055;-84
2022/12/07 15:02:15;;;;;;;14.03;7.07;;;;;;;4.57;45.65;100732.50;31391915;28;20040;-84
2022/12/07 15:17:18;;;;;;;16.07;7.83;;;;;;;4.24;47.35;100717.03;31403883;28;20044;-86
2022/12/07 15:32:32;;;;;;;8.60;4.73;;;;;;;4.19;47.05;100726.16;31405975;28;20061;-84
2022/12/07 15:47:42;;;;;;;13.93;6.67;;;;;;;4.22;45.26;100725.47;31395143;28;20460;-82
2022/12/07 16:03:04;;;;;;;7.97;4.80;;;;;;;4.09;45.60;100726.75;31372207;28;20053;-81
2022/12/07 16:18:07;;;;;;;8.70;5.37;;;;;;;4.23;45.60;100708.19;31384750;28;20040;-76
2022/12/07 16:33:09;;;;;;;11.03;7.03;;;;;;;4.22;46.82;100711.25;31337731;28;20637;-75
2022/12/07 16:48:11;;;;;;;14.27;6.20;;;;;;;3.98;46.73;100715.06;31344715;28;20045;-76
2022/12/07 17:03:13;;;;;;;14.50;5.30;;;;;;;4.18;45.71;100713.88;31356676;28;20063;-77
2022/12/07 17:18:21;;;;;;;10.23;5.87;;;;;;;4.16;45.70;100680.44;31346633;28;20049;-74
2022/12/07 17:33:23;;;;;;;7.90;5.30;;;;;;;4.56;44.75;100690.59;31354017;28;20456;-74
2022/12/07 17:48:25;;;;;;;8.67;5.03;;;;;;;4.49;45.07;100685.16;31386511;28;20065;-76
2022/12/07 18:03:26;;;;;;;7.30;4.40;;;;;;;4.79;44.17;100677.88;31391027;28;20045;-78
2022/12/07 18:18:28;;;;;;;7.47;4.67;;;;;;;4.66;44.42;100666.56;31379293;28;20079;-77
2022/12/07 18:33:30;;;;;;;6.57;4.67;;;;;;;4.77;44.60;100662.09;31363015;28;20061;-77
2022/12/07 18:48:32;;;;;;;15.10;5.97;;;;;;;4.66;45.53;100657.72;31371704;28;20053;-77
2022/12/07 19:03:34;;;;;;;12.23;6.43;;;;;;;4.32;47.59;100638.03;31361411;28;20056;-76
2022/12/07 19:18:36;;;;;;;12.87;6.30;;;;;;;4.59;46.16;100633.41;31358431;28;20049;-76
2022/12/07 19:33:38;;;;;;;8.33;5.30;;;;;;;4.96;46.20;100623.50;31330868;28;20091;-75
2022/12/07 19:48:40;;;;;;;11.90;7.03;;;;;;;4.74;46.53;100594.78;31324393;28;20115;-75
2022/12/07 20:03:43;;;;;;;12.93;6.67;;;;;;;4.88;46.59;100611.13;31313850;28;20583;-74
2022/12/07 20:18:45;;;;;;;15.10;4.93;;;;;;;5.33;46.21;100609.28;31307897;28;20535;-75
2022/12/07 20:33:47;;;;;;;13.50;7.13;;;;;;;5.45;46.16;100601.69;31316035;28;20111;-76
2022/12/07 20:48:50;;;;;;;11.70;5.63;;;;;;;5.23;46.85;100583.03;31318933;28;20053;-74
2022/12/07 21:04:00;;;;;;;15.40;7.93;;;;;;;5.49;47.44;100574.81;31312049;28;21642;-74
2022/12/07 21:19:03;;;;;;;14.13;7.50;;;;;;;5.59;47.20;100571.44;31318051;28;20056;-74
2022/12/07 21:34:07;;;;;;;14.73;7.77;;;;;;;5.85;46.54;100585.88;31315289;28;20053;-73
2022/12/07 21:49:14;;;;;;;10.67;6.47;;;;;;;6.12;46.69;100600.72;31301157;28;20111;-75
2022/12/07 22:04:18;;;;;;;17.60;7.40;;;;;;;6.11;47.14;100583.00;31303035;28;20147;-74
2022/12/07 22:19:20;;;;;;;21.67;8.57;;;;;;;6.07;47.67;100576.81;31318294;28;20511;-74
2022/12/07 22:34:22;;;;;;;17.10;8.13;;;;;;;6.18;47.60;100561.47;31337659;28;20064;-74
2022/12/07 22:49:24;;;;;;;14.50;7.40;;;;;;;6.09;49.11;100556.41;31338302;28;20046;-73
2022/12/07 23:04:29;;;;;;;17.77;8.27;;;;;;;6.36;48.37;100561.56;31339530;28;20149;-73
2022/12/07 23:19:31;;;;;;;10.63;6.27;;;;;;;6.63;47.82;100586.31;31352520;28;20048;-73
2022/12/07 23:34:33;;;;;;;14.07;6.43;;;;;;;6.84;47.54;100591.81;31340135;28;20429;-74
2022/12/07 23:49:35;;;;;;;13.90;7.23;;;;;;;6.81;47.60;100592.56;31336691;28;20060;-73
